Time;durP1;ratioP1;P1;durP2;ratioP2;P2;SDS_P1;SDS_P2;PMS_P1;PMS_P2;Temp;Humidity;BMP_temperature;BMP_pressure;BME280_temperature;BME280_humidity;BME280_pressure;Samples;Min_cycle;Max_cycle;Signal;HPM_P1;HPM_P2
2021/03/17 00:00:47;;;;;;;7.10;5.30;;;4.50;99.90;;;;;;5051132;28;20539;-72
2021/03/17 00:03:14;;;;;;;7.27;5.13;;;4.50;99.90;;;;;;5050969;28;20547;-72
2021/03/17 00:05:42;;;;;;;6.13;4.80;;;4.50;99.90;;;;;;5050652;28;20554;-72
2021/03/17 00:08:10;;;;;;;5.80;5.07;;;4.50;99.90;;;;;;5050455;28;21219;-72
2021/03/17 00:10:39;;;;;;;6.60;5.00;;;4.50;99.90;;;;;;5050247;28;20440;-72
2021/03/17 00:13:06;;;;;;;6.63;5.47;;;4.50;99.90;;;;;;5050465;28;20466;-73
2021/03/17 00:15:34;;;;;;;6.10;5.40;;;4.50;99.90;;;;;;5050524;28;20476;-71
2021/03/17 00:18:01;;;;;;;7.00;5.47;;;4.40;99.90;;;;;;5050393;28;20476;-73
2021/03/17 00:20:29;;;;;;;7.47;4.83;;;4.40;99.90;;;;;;5049961;28;20880;-73
2021/03/17 00:22:57;;;;;;;6.73;5.97;;;4.40;99.90;;;;;;5050139;28;20906;-73
2021/03/17 00:25:26;;;;;;;8.53;6.23;;;4.50;99.90;;;;;;5050118;28;20958;-73
2021/03/17 00:27:52;;;;;;;8.57;5.40;;;4.40;99.90;;;;;;5050068;28;20531;-73
2021/03/17 00:30:20;;;;;;;7.40;5.27;;;4.50;99.90;;;;;;5050149;28;20957;-73
2021/03/17 00:32:46;;;;;;;6.43;5.10;;;4.50;99.90;;;;;;5050317;28;20535;-73
2021/03/17 00:35:12;;;;;;;5.90;5.20;;;4.50;99.90;;;;;;5050085;28;20446;-74
2021/03/17 00:37:39;;;;;;;7.80;4.80;;;4.40;99.90;;;;;;5050008;28;20543;-73
2021/03/17 00:40:07;;;;;;;7.33;5.40;;;4.50;99.90;;;;;;5049897;28;20766;-74
2021/03/17 00:42:56;;;;;;;6.13;5.13;;;4.50;99.90;;;;;;5053715;28;20807;-73
2021/03/17 00:45:22;;;;;;;7.10;5.63;;;4.50;99.90;;;;;;5053779;28;20534;-72
2021/03/17 00:47:48;;;;;;;7.00;5.67;;;4.50;99.90;;;;;;5053558;28;20546;-72
2021/03/17 00:50:17;;;;;;;8.83;6.60;;;4.50;99.90;;;;;;5053631;28;20527;-73
2021/03/17 00:52:45;;;;;;;8.20;5.30;;;4.50;99.90;;;;;;5053786;28;20448;-74
2021/03/17 00:55:13;;;;;;;8.63;5.67;;;4.50;99.90;;;;;;5053531;28;20838;-73
2021/03/17 00:57:39;;;;;;;6.50;5.20;;;4.50;99.90;;;;;;5053852;28;20551;-73
2021/03/17 01:00:09;;;;;;;6.13;5.23;;;4.40;99.90;;;;;;5053797;28;20534;-73
2021/03/17 01:02:35;;;;;;;8.27;5.63;;;4.40;99.90;;;;;;5053385;28;20444;-73
2021/03/17 01:05:27;;;;;;;7.03;5.40;;;4.40;99.90;;;;;;5053646;28;20498;-73
2021/03/17 01:07:53;;;;;;;5.23;4.10;;;4.40;99.90;;;;;;5053316;28;20444;-72
2021/03/17 01:10:24;;;;;;;7.83;5.40;;;4.40;99.90;;;;;;5052988;28;20935;-72
2021/03/17 01:12:50;;;;;;;6.50;5.17;;;4.40;99.90;;;;;;5053161;28;21144;-73
2021/03/17 01:15:19;;;;;;;7.83;6.13;;;4.30;99.90;;;;;;5052924;28;21078;-72
2021/03/17 01:17:46;;;;;;;7.47;5.77;;;4.30;99.90;;;;;;5053043;28;20988;-73
2021/03/17 01:20:14;;;;;;;7.60;6.10;;;4.30;99.90;;;;;;5052811;28;20532;-72
2021/03/17 01:22:40;;;;;;;9.23;6.20;;;4.30;99.90;;;;;;5052957;28;20519;-73
2021/03/17 01:25:09;;;;;;;7.20;5.40;;;4.30;99.90;;;;;;5053070;28;20972;-72
2021/03/17 01:27:36;;;;;;;8.27;6.07;;;4.20;99.90;;;;;;5052674;28;20488;-73
2021/03/17 01:30:03;;;;;;;9.20;6.77;;;4.30;99.90;;;;;;5052860;28;20814;-73
2021/03/17 01:32:30;;;;;;;7.70;6.20;;;4.20;99.90;;;;;;5052709;28;20448;-73
2021/03/17 01:34:57;;;;;;;6.53;5.83;;;4.20;99.90;;;;;;5052886;28;20961;-73
2021/03/17 01:37:23;;;;;;;9.10;6.40;;;4.20;99.90;;;;;;5052430;28;20547;-72
2021/03/17 01:39:49;;;;;;;9.27;6.37;;;4.20;99.90;;;;;;5052568;28;21028;-73
2021/03/17 01:42:16;;;;;;;7.03;6.33;;;4.20;99.90;;;;;;5052626;28;20542;-73
2021/03/17 01:44:42;;;;;;;9.67;6.57;;;4.20;99.90;;;;;;5052725;28;20462;-73
2021/03/17 01:47:08;;;;;;;8.40;6.87;;;4.20;99.90;;;;;;5052628;28;20869;-72
2021/03/17 01:49:36;;;;;;;7.60;6.17;;;4.20;99.90;;;;;;5052166;28;20535;-73
2021/03/17 01:52:03;;;;;;;7.90;6.40;;;4.20;99.90;;;;;;5052221;28;20456;-72
2021/03/17 01:54:29;;;;;;;7.83;6.07;;;4.20;99.90;;;;;;5052302;28;20447;-73
2021/03/17 01:56:55;;;;;;;9.40;7.40;;;4.20;99.90;;;;;;5052253;28;20510;-73
2021/03/17 01:59:23;;;;;;;9.93;6.90;;;4.20;99.90;;;;;;5052069;28;20436;-72
2021/03/17 02:01:51;;;;;;;8.97;6.53;;;4.10;99.90;;;;;;5052263;28;20444;-73
2021/03/17 02:04:17;;;;;;;10.17;6.83;;;4.20;99.90;;;;;;5052552;28;20473;-72
2021/03/17 02:06:44;;;;;;;9.80;5.97;;;4.20;99.90;;;;;;5051793;28;20484;-74
2021/03/17 02:09:11;;;;;;;6.73;5.40;;;4.10;99.90;;;;;;5051721;28;20554;-72
2021/03/17 02:11:42;;;;;;;8.87;5.60;;;4.20;99.90;;;;;;5051692;28;20846;-72
2021/03/17 02:14:21;;;;;;;7.57;6.10;;;4.20;99.90;;;;;;5052078;28;20440;-72
2021/03/17 02:16:53;;;;;;;7.30;5.90;;;4.10;99.90;;;;;;5051879;28;20962;-72
2021/03/17 02:19:52;;;;;;;6.80;5.93;;;4.20;99.90;;;;;;5051676;28;20467;-73
2021/03/17 02:22:45;;;;;;;6.93;5.67;;;4.10;99.90;;;;;;5051851;28;20448;-73
2021/03/17 02:25:28;;;;;;;7.30;5.90;;;4.10;99.90;;;;;;5051843;28;20444;-73
2021/03/17 02:28:08;;;;;;;7.70;6.10;;;4.10;99.90;;;;;;5051976;28;20511;-72
2021/03/17 02:30:55;;;;;;;7.97;5.60;;;4.10;99.90;;;;;;5051566;28;20451;-72
2021/03/17 02:33:52;;;;;;;8.30;5.93;;;4.10;99.90;;;;;;5051789;28;20454;-73
2021/03/17 02:36:26;;;;;;;7.03;5.63;;;4.10;99.90;;;;;;5051604;28;20464;-73
2021/03/17 02:39:01;;;;;;;6.53;5.27;;;4.10;99.90;;;;;;5051390;28;20484;-73
2021/03/17 02:41:33;;;;;;;6.70;4.83;;;4.10;99.90;;;;;;5051650;28;20454;-73
2021/03/17 02:44:02;;;;;;;7.07;5.03;;;4.00;99.90;;;;;;5051314;28;20947;-72
2021/03/17 02:46:29;;;;;;;6.93;5.60;;;4.00;99.90;;;;;;5051190;28;20494;-73
2021/03/17 02:49:00;;;;;;;8.20;6.77;;;4.00;99.90;;;;;;5050847;28;20444;-73
2021/03/17 02:51:33;;;;;;;6.60;5.90;;;4.00;99.90;;;;;;5051340;28;20443;-73
2021/03/17 02:54:02;;;;;;;8.57;5.93;;;4.00;99.90;;;;;;5051328;28;20505;-73
2021/03/17 02:56:32;;;;;;;9.93;6.50;;;4.00;99.90;;;;;;5051104;28;20460;-73
2021/03/17 02:59:00;;;;;;;8.57;6.70;;;4.00;99.90;;;;;;5050814;28;20441;-73
2021/03/17 03:01:30;;;;;;;9.20;7.10;;;4.00;99.90;;;;;;5050829;28;20947;-73
2021/03/17 03:03:58;;;;;;;7.17;6.13;;;4.00;99.90;;;;;;5050515;28;20439;-72
2021/03/17 03:06:26;;;;;;;8.37;6.70;;;3.90;99.90;;;;;;5051064;28;20479;-72
2021/03/17 03:08:53;;;;;;;7.23;6.40;;;4.00;99.90;;;;;;5050610;28;20498;-73
2021/03/17 03:11:20;;;;;;;7.77;6.63;;;4.00;99.90;;;;;;5050974;28;20450;-73
2021/03/17 03:13:49;;;;;;;11.00;6.93;;;4.00;99.90;;;;;;5050750;28;20455;-73
2021/03/17 03:16:16;;;;;;;7.30;6.20;;;3.90;99.90;;;;;;5050996;28;20802;-73
2021/03/17 03:18:47;;;;;;;8.63;7.10;;;3.90;99.90;;;;;;5050480;28;20446;-73
2021/03/17 03:21:18;;;;;;;7.53;6.10;;;3.90;99.90;;;;;;5050968;28;20448;-73
2021/03/17 03:23:47;;;;;;;7.90;6.10;;;4.00;99.90;;;;;;5050759;28;20478;-73
2021/03/17 03:26:14;;;;;;;7.70;6.17;;;3.90;99.90;;;;;;5050632;28;20484;-73
2021/03/17 03:28:41;;;;;;;10.10;7.23;;;3.90;99.90;;;;;;5050857;28;20527;-73
2021/03/17 03:31:08;;;;;;;7.00;6.07;;;3.90;99.90;;;;;;5050811;28;20446;-73
2021/03/17 03:33:34;;;;;;;7.67;5.73;;;3.90;99.90;;;;;;5050734;28;20510;-72
2021/03/17 03:36:01;;;;;;;8.10;6.43;;;3.80;99.90;;;;;;5050806;28;20534;-72
2021/03/17 03:38:28;;;;;;;10.00;7.30;;;3.80;99.90;;;;;;5050254;28;20450;-72
2021/03/17 03:40:54;;;;;;;8.63;5.83;;;3.90;99.90;;;;;;5050561;28;20973;-72
2021/03/17 03:43:21;;;;;;;7.60;6.40;;;3.90;99.90;;;;;;5050520;28;20769;-72
2021/03/17 03:45:47;;;;;;;7.87;6.07;;;3.80;99.90;;;;;;5050694;28;20470;-72
2021/03/17 03:48:14;;;;;;;7.90;6.00;;;3.80;99.90;;;;;;5050449;28;20442;-73
2021/03/17 03:50:43;;;;;;;7.37;6.10;;;3.80;99.90;;;;;;5050140;28;20446;-72
2021/03/17 03:53:26;;;;;;;7.77;6.30;;;3.80;99.90;;;;;;5050349;28;20452;-73
2021/03/17 03:56:01;;;;;;;7.70;5.73;;;3.70;99.90;;;;;;5050315;28;20834;-72
2021/03/17 03:58:30;;;;;;;7.43;5.90;;;3.70;99.90;;;;;;5050453;28;20811;-72
2021/03/17 04:01:03;;;;;;;6.67;5.93;;;3.60;99.90;;;;;;5050493;28;20455;-72
2021/03/17 04:03:32;;;;;;;8.17;6.37;;;3.60;99.90;;;;;;5050477;28;21109;-72
2021/03/17 04:05:59;;;;;;;7.00;6.17;;;3.70;99.90;;;;;;5050316;28;20546;-72
2021/03/17 04:08:26;;;;;;;6.97;6.20;;;3.70;99.90;;;;;;5050069;28;20527;-73
2021/03/17 04:10:58;;;;;;;9.10;6.90;;;3.80;99.90;;;;;;5050327;28;20930;-72
2021/03/17 04:13:25;;;;;;;9.37;7.07;;;3.80;99.90;;;;;;5050219;28;20542;-73
2021/03/17 04:15:55;;;;;;;10.00;6.73;;;3.90;99.90;;;;;;5052624;28;20463;-73
2021/03/17 04:18:23;;;;;;;10.80;8.20;;;3.90;99.90;;;;;;5053861;28;21214;-73
2021/03/17 04:20:53;;;;;;;8.13;7.13;;;3.90;99.90;;;;;;5053984;28;20828;-72
2021/03/17 04:23:22;;;;;;;13.37;8.90;;;3.90;99.90;;;;;;5053914;28;21104;-73
2021/03/17 04:25:50;;;;;;;10.10;7.70;;;3.90;99.90;;;;;;5054014;28;20526;-73
2021/03/17 04:28:19;;;;;;;9.63;7.80;;;3.90;99.90;;;;;;5053909;28;20498;-73
2021/03/17 04:30:47;;;;;;;9.43;7.20;;;4.00;99.90;;;;;;5053931;28;20502;-73
2021/03/17 04:33:15;;;;;;;10.77;8.67;;;4.00;99.90;;;;;;5053675;28;20950;-73
2021/03/17 04:35:42;;;;;;;9.50;7.80;;;4.00;99.90;;;;;;5053731;28;20476;-73
2021/03/17 04:38:09;;;;;;;11.30;9.30;;;3.90;99.90;;;;;;5053748;28;20452;-72
2021/03/17 04:40:38;;;;;;;9.70;8.30;;;3.90;99.90;;;;;;5053574;28;21017;-73
2021/03/17 04:43:05;;;;;;;9.93;8.60;;;3.90;99.90;;;;;;5053717;28;20866;-73
2021/03/17 04:45:34;;;;;;;9.10;7.73;;;3.90;99.90;;;;;;5053492;28;20564;-73
2021/03/17 04:48:02;;;;;;;12.13;8.80;;;3.90;99.90;;;;;;5053585;28;20484;-73
2021/03/17 04:50:29;;;;;;;12.03;9.47;;;3.90;99.90;;;;;;5053405;28;20505;-73
2021/03/17 04:52:55;;;;;;;12.80;9.20;;;3.90;99.90;;;;;;5053617;28;20547;-73
2021/03/17 04:55:22;;;;;;;13.20;9.93;;;3.90;99.90;;;;;;5053365;28;20444;-73
2021/03/17 04:57:50;;;;;;;11.23;8.97;;;4.00;99.90;;;;;;5053358;28;20464;-73
2021/03/17 05:00:20;;;;;;;11.60;8.80;;;4.00;99.90;;;;;;5053238;28;20486;-73
2021/03/17 05:02:51;;;;;;;10.33;8.73;;;3.90;99.90;;;;;;5053631;28;20440;-73
2021/03/17 05:05:17;;;;;;;12.00;8.90;;;4.00;99.90;;;;;;5053357;28;20462;-73
2021/03/17 05:07:44;;;;;;;10.67;9.30;;;4.00;99.90;;;;;;5052939;28;20486;-73
2021/03/17 05:10:12;;;;;;;11.07;8.80;;;4.00;99.90;;;;;;5052887;28;20852;-73
2021/03/17 05:12:40;;;;;;;9.00;7.47;;;4.00;99.90;;;;;;5052880;28;20463;-73
2021/03/17 05:15:07;;;;;;;9.97;8.20;;;4.10;99.90;;;;;;5053151;28;20501;-73
2021/03/17 05:17:35;;;;;;;10.60;8.40;;;4.10;99.90;;;;;;5052829;28;20456;-73
2021/03/17 05:20:04;;;;;;;10.50;9.20;;;4.20;99.90;;;;;;5052623;28;20448;-72
2021/03/17 05:22:31;;;;;;;10.03;8.93;;;4.20;99.90;;;;;;5052771;28;20477;-72
2021/03/17 05:24:58;;;;;;;12.90;10.43;;;4.20;99.90;;;;;;5053446;28;20452;-73
2021/03/17 05:27:28;;;;;;;11.30;9.80;;;4.30;99.90;;;;;;5051715;28;20479;-72
2021/03/17 05:29:56;;;;;;;12.13;9.50;;;4.30;99.90;;;;;;5052770;28;20458;-73
2021/03/17 05:32:25;;;;;;;12.07;10.10;;;4.30;99.90;;;;;;5052731;28;20452;-73
2021/03/17 05:34:57;;;;;;;10.43;8.90;;;4.20;99.90;;;;;;5052670;28;20456;-73
2021/03/17 05:37:25;;;;;;;12.90;9.33;;;4.20;99.90;;;;;;5052480;28;20833;-72
2021/03/17 05:39:51;;;;;;;14.83;11.20;;;4.20;99.90;;;;;;5052500;28;20587;-72
2021/03/17 05:42:18;;;;;;;15.73;11.20;;;4.20;99.90;;;;;;5052973;28;20471;-74
2021/03/17 05:44:44;;;;;;;12.70;10.20;;;4.20;99.90;;;;;;5052376;28;20531;-74
2021/03/17 05:47:11;;;;;;;12.90;10.20;;;4.20;99.90;;;;;;5052336;28;20488;-72
2021/03/17 05:49:38;;;;;;;14.90;11.50;;;4.20;99.90;;;;;;5052267;28;20450;-72
2021/03/17 05:52:06;;;;;;;14.73;10.80;;;4.20;99.90;;;;;;5052270;28;20516;-72
2021/03/17 05:54:33;;;;;;;13.50;11.20;;;4.20;99.90;;;;;;5051962;28;20444;-69
2021/03/17 05:57:01;;;;;;;15.17;11.50;;;4.20;99.90;;;;;;5052297;28;20460;-74
2021/03/17 05:59:29;;;;;;;13.97;11.47;;;4.20;99.90;;;;;;5051830;28;20582;-72
2021/03/17 06:01:57;;;;;;;14.97;11.90;;;4.10;99.90;;;;;;5052705;28;20970;-76
2021/03/17 06:04:26;;;;;;;18.57;13.60;;;4.00;99.90;;;;;;5051916;28;20538;-76
2021/03/17 06:06:56;;;;;;;17.77;13.63;;;4.00;99.90;;;;;;5052092;28;20484;-75
2021/03/17 06:09:23;;;;;;;14.80;12.30;;;3.90;99.90;;;;;;5049611;28;20440;-75
2021/03/17 06:11:52;;;;;;;16.30;12.50;;;3.90;99.90;;;;;;5051066;28;21037;-74
2021/03/17 06:14:20;;;;;;;18.13;12.90;;;3.90;99.90;;;;;;5051911;28;20448;-75
2021/03/17 06:16:48;;;;;;;19.13;13.90;;;3.80;99.90;;;;;;5051175;28;20555;-73
2021/03/17 06:19:16;;;;;;;18.70;13.77;;;3.80;99.90;;;;;;5050392;28;20467;-74
2021/03/17 06:21:43;;;;;;;20.30;15.17;;;3.80;99.90;;;;;;5052332;28;20474;-74
2021/03/17 06:24:11;;;;;;;19.80;13.90;;;3.80;99.90;;;;;;5052006;28;20440;-73
2021/03/17 06:26:38;;;;;;;19.90;13.97;;;3.90;99.90;;;;;;5051268;28;20486;-73
2021/03/17 06:29:06;;;;;;;23.03;15.83;;;3.90;99.90;;;;;;5051269;28;20862;-73
2021/03/17 06:31:32;;;;;;;23.03;16.07;;;3.90;99.90;;;;;;5051448;28;20440;-73
2021/03/17 06:33:59;;;;;;;21.80;15.80;;;4.00;99.90;;;;;;5051315;28;21112;-73
2021/03/17 06:36:26;;;;;;;23.73;15.07;;;4.00;99.90;;;;;;5051545;28;20464;-72
2021/03/17 06:39:05;;;;;;;24.80;17.40;;;4.10;99.90;;;;;;5050299;28;20797;-73
2021/03/17 06:41:46;;;;;;;23.60;16.80;;;4.10;99.90;;;;;;5051377;28;20443;-72
2021/03/17 06:44:19;;;;;;;22.93;15.67;;;4.10;99.90;;;;;;5051221;28;20444;-72
2021/03/17 06:46:45;;;;;;;25.80;17.90;;;4.20;99.90;;;;;;5051351;28;20479;-72
2021/03/17 06:49:35;;;;;;;26.30;19.47;;;4.30;99.90;;;;;;5046838;28;20502;-72
2021/03/17 06:52:28;;;;;;;23.93;17.13;;;4.50;99.90;;;;;;5051873;28;20542;-73
2021/03/17 06:55:19;;;;;;;22.50;16.87;;;4.50;99.90;;;;;;5046553;28;20966;-72
2021/03/17 06:57:47;;;;;;;24.67;17.77;;;4.60;99.90;;;;;;5038196;28;20475;-72
2021/03/17 07:00:33;;;;;;;28.30;15.97;;;4.60;99.90;;;;;;5068565;28;20449;-72
2021/03/17 07:03:01;;;;;;;22.30;16.20;;;4.60;99.90;;;;;;5069267;28;20451;-71
2021/03/17 07:05:36;;;;;;;21.63;16.70;;;4.60;99.90;;;;;;5069783;28;20980;-72
2021/03/17 07:08:05;;;;;;;21.00;16.10;;;4.60;99.90;;;;;;5069928;28;20482;-72
2021/03/17 07:10:34;;;;;;;25.40;16.77;;;4.60;99.90;;;;;;5070152;28;20578;-73
2021/03/17 07:13:01;;;;;;;24.40;16.37;;;4.60;99.90;;;;;;5070505;28;20532;-72
2021/03/17 07:15:28;;;;;;;21.70;16.30;;;4.60;99.90;;;;;;5070564;28;20525;-72
2021/03/17 07:18:12;;;;;;;21.57;17.13;;;4.70;99.90;;;;;;5070990;28;20958;-73
2021/03/17 07:20:40;;;;;;;23.87;15.57;;;4.80;99.90;;;;;;5071076;28;20451;-72
2021/03/17 07:23:33;;;;;;;22.23;17.20;;;4.90;99.90;;;;;;5072274;28;20442;-73
2021/03/17 07:26:12;;;;;;;18.93;15.23;;;5.00;99.90;;;;;;5071215;28;20499;-73
2021/03/17 07:29:03;;;;;;;22.80;15.87;;;5.20;99.90;;;;;;5070934;28;21040;-73
2021/03/17 07:31:31;;;;;;;21.20;14.67;;;5.30;99.90;;;;;;5071364;28;20435;-72
2021/03/17 07:34:18;;;;;;;22.10;15.30;;;5.40;99.90;;;;;;5071713;28;20542;-73
2021/03/17 07:36:46;;;;;;;19.20;13.10;;;5.50;99.90;;;;;;5071300;28;20974;-73
2021/03/17 07:39:16;;;;;;;17.50;14.07;;;5.50;99.90;;;;;;5071040;28;20455;-71
2021/03/17 07:41:42;;;;;;;15.03;12.03;;;5.50;99.90;;;;;;5071259;28;20518;-72
2021/03/17 07:44:12;;;;;;;15.67;12.10;;;5.40;99.90;;;;;;5071000;28;20453;-71
2021/03/17 07:46:40;;;;;;;15.93;12.13;;;5.40;99.90;;;;;;5070915;28;20487;-71
2021/03/17 07:49:08;;;;;;;17.60;12.90;;;5.30;99.90;;;;;;5070536;28;20447;-71
2021/03/17 07:51:40;;;;;;;18.60;13.17;;;5.30;99.90;;;;;;5074507;28;20863;-71
2021/03/17 07:54:09;;;;;;;16.73;13.37;;;5.20;99.90;;;;;;5074895;28;20497;-72
2021/03/17 07:56:37;;;;;;;19.30;13.67;;;5.20;99.90;;;;;;5074813;28;20923;-71
2021/03/17 07:59:04;;;;;;;18.60;13.13;;;5.30;99.90;;;;;;5074373;28;20456;-72
2021/03/17 08:01:32;;;;;;;18.47;13.37;;;5.40;99.90;;;;;;5074227;28;20447;-71
2021/03/17 08:04:00;;;;;;;15.73;12.03;;;5.60;99.90;;;;;;5074386;28;20821;-74
2021/03/17 08:06:27;;;;;;;14.13;11.43;;;5.60;99.90;;;;;;5074735;28;20493;-72
2021/03/17 08:08:58;;;;;;;18.97;13.20;;;5.60;99.90;;;;;;5073997;28;20446;-72
2021/03/17 08:11:26;;;;;;;14.23;11.10;;;5.70;99.90;;;;;;5074287;28;20441;-72
2021/03/17 08:13:53;;;;;;;15.03;12.57;;;5.80;99.90;;;;;;5074596;28;20601;-73
2021/03/17 08:16:22;;;;;;;14.20;11.60;;;5.80;99.90;;;;;;5076846;28;20470;-72
2021/03/17 08:18:49;;;;;;;15.67;12.40;;;5.90;99.90;;;;;;5076797;28;20434;-71
2021/03/17 08:21:31;;;;;;;15.13;12.13;;;5.90;99.90;;;;;;5074161;28;20445;-72
2021/03/17 08:23:58;;;;;;;15.63;10.70;;;5.90;99.90;;;;;;5073676;28;20875;-72
2021/03/17 08:26:43;;;;;;;14.00;11.50;;;5.80;99.90;;;;;;5073840;28;20848;-72
2021/03/17 08:29:14;;;;;;;18.50;12.27;;;6.00;99.90;;;;;;5073783;28;20439;-71
2021/03/17 08:31:51;;;;;;;14.53;11.97;;;6.30;99.90;;;;;;5073772;28;20442;-70
2021/03/17 08:34:28;;;;;;;14.73;11.70;;;6.20;99.90;;;;;;5073834;28;20442;-72
2021/03/17 08:36:57;;;;;;;14.13;11.33;;;6.10;99.90;;;;;;5068080;23;20947;-66
2021/03/17 08:39:47;;;;;;;17.23;11.57;;;6.00;99.90;;;;;;5034073;28;20460;-66
2021/03/17 08:42:26;;;;;;;20.73;11.50;;;6.00;99.90;;;;;;5034139;28;20507;-66
2021/03/17 08:44:53;;;;;;;14.30;11.23;;;6.20;99.90;;;;;;5042802;28;20618;-65
2021/03/17 08:47:22;;;;;;;13.53;10.80;;;6.40;99.90;;;;;;5034883;28;20981;-66
2021/03/17 08:49:50;;;;;;;12.93;8.37;;;6.40;99.90;;;;;;5033542;28;20448;-66
2021/03/17 08:52:18;;;;;;;10.67;6.33;;;6.20;99.90;;;;;;5033999;28;20448;-66
2021/03/17 08:55:16;;;;;;;8.00;6.20;;;5.90;99.90;;;;;;5033470;28;20548;-67
2021/03/17 08:58:05;;;;;;;8.20;7.10;;;5.90;99.90;;;;;;5033195;28;20523;-67
2021/03/17 09:00:45;;;;;;;11.17;7.07;;;6.20;99.90;;;;;;5033466;28;20448;-66
2021/03/17 09:03:46;;;;;;;7.07;5.97;;;6.80;99.90;;;;;;5032705;28;20965;-66
2021/03/17 09:06:18;;;;;;;8.90;5.43;;;7.30;99.90;;;;;;5033085;28;20465;-66
2021/03/17 09:08:50;;;;;;;7.23;6.20;;;7.70;99.90;;;;;;5033051;28;20445;-66
2021/03/17 09:11:59;;;;;;;6.87;5.40;;;7.90;99.90;;;;;;5033453;28;20451;-66
2021/03/17 09:14:35;;;;;;;6.20;4.50;;;8.00;99.90;;;;;;5032876;28;20468;-65
2021/03/17 09:17:25;;;;;;;7.30;5.00;;;8.20;99.90;;;;;;5033092;28;20536;-65
2021/03/17 09:20:23;;;;;;;4.70;4.10;;;8.40;99.90;;;;;;5033469;28;20536;-66
2021/03/17 09:23:00;;;;;;;7.20;5.40;;;8.70;99.90;;;;;;4952696;29;20875;-66
2021/03/17 09:25:28;;;;;;;6.10;4.80;;;9.00;99.90;;;;;;5032848;28;20870;-66
2021/03/17 09:28:07;;;;;;;6.30;5.47;;;9.80;99.90;;;;;;5052935;28;20475;-66
2021/03/17 09:30:39;;;;;;;7.40;6.27;;;9.80;99.90;;;;;;5052791;28;20524;-67
2021/03/17 09:33:09;;;;;;;7.33;6.23;;;9.80;99.90;;;;;;5051704;28;20448;-67
2021/03/17 09:35:36;;;;;;;6.50;5.50;;;9.50;99.90;;;;;;5052938;28;20817;-67
2021/03/17 09:38:11;;;;;;;7.37;6.20;;;9.30;99.90;;;;;;5053261;28;20531;-66
2021/03/17 09:40:50;;;;;;;7.30;5.77;;;9.30;99.90;;;;;;5052251;28;20446;-67
2021/03/17 09:43:34;;;;;;;8.33;6.30;;;9.40;99.90;;;;;;5051016;28;20440;-67
2021/03/17 09:46:21;;;;;;;7.37;6.00;;;9.70;99.90;;;;;;5052551;28;20562;-67
2021/03/17 09:48:49;;;;;;;6.10;5.03;;;9.80;99.90;;;;;;5032574;28;20521;-66
2021/03/17 09:51:16;;;;;;;6.63;5.37;;;9.30;99.90;;;;;;5038754;28;20451;-67
2021/03/17 09:53:44;;;;;;;8.63;5.73;;;8.70;99.90;;;;;;5052537;28;20579;-67
2021/03/17 09:56:10;;;;;;;9.80;6.40;;;8.30;99.90;;;;;;5052165;28;20464;-66
2021/03/17 09:58:37;;;;;;;7.33;5.73;;;8.20;99.90;;;;;;5051641;28;20597;-66
2021/03/17 10:01:10;;;;;;;11.63;7.13;;;8.30;99.90;;;;;;5052674;28;20544;-66
2021/03/17 10:03:37;;;;;;;8.47;6.33;;;8.40;99.90;;;;;;5052123;28;20539;-67
2021/03/17 10:06:04;;;;;;;7.50;6.10;;;8.40;99.90;;;;;;5052096;28;20547;-67
2021/03/17 10:08:33;;;;;;;7.13;5.40;;;8.30;99.90;;;;;;5051740;28;20570;-67
2021/03/17 10:11:00;;;;;;;6.10;3.80;;;8.10;99.90;;;;;;5052245;28;21031;-67
2021/03/17 10:13:28;;;;;;;5.30;3.50;;;8.00;99.90;;;;;;5052115;28;20444;-67
2021/03/17 10:15:54;;;;;;;8.30;5.80;;;7.80;99.90;;;;;;5052118;28;20950;-66
2021/03/17 10:18:22;;;;;;;6.00;4.80;;;7.70;99.90;;;;;;5051937;28;20438;-67
2021/03/17 10:20:51;;;;;;;7.00;4.30;;;7.70;99.90;;;;;;5052284;28;20556;-66
2021/03/17 10:23:17;;;;;;;6.20;4.27;;;7.60;99.90;;;;;;5051738;28;20450;-66
2021/03/17 10:25:44;;;;;;;6.40;4.73;;;7.40;99.90;;;;;;5051724;28;20822;-66
2021/03/17 10:28:11;;;;;;;5.90;4.20;;;7.30;99.90;;;;;;5051658;28;20488;-66
2021/03/17 10:30:39;;;;;;;5.33;4.13;;;7.50;99.90;;;;;;5051517;28;20476;-67
2021/03/17 10:33:09;;;;;;;7.03;4.80;;;8.00;99.90;;;;;;5051572;28;21284;-67
2021/03/17 10:35:37;;;;;;;8.23;4.90;;;8.30;99.90;;;;;;5051395;28;20936;-66
2021/03/17 10:38:06;;;;;;;5.13;4.47;;;8.60;99.90;;;;;;5051653;28;20455;-67
2021/03/17 10:40:32;;;;;;;7.70;4.30;;;8.80;99.90;;;;;;5052075;28;20493;-65
2021/03/17 10:43:06;;;;;;;5.03;3.83;;;8.80;99.90;;;;;;5052112;28;20522;-67
2021/03/17 10:45:42;;;;;;;7.30;5.07;;;8.80;99.90;;;;;;5051453;28;21049;-68
2021/03/17 10:48:12;;;;;;;5.10;4.00;;;8.90;99.90;;;;;;5051110;28;20482;-66
2021/03/17 10:50:40;;;;;;;6.03;4.10;;;9.20;99.90;;;;;;5051176;28;20523;-68
2021/03/17 10:53:17;;;;;;;5.20;4.20;;;9.40;99.90;;;;;;5051192;28;20530;-67
2021/03/17 10:55:44;;;;;;;6.83;5.00;;;9.70;99.90;;;;;;5051270;28;20495;-67
2021/03/17 10:58:13;;;;;;;6.57;5.10;;;9.60;99.90;;;;;;5051511;28;20555;-65
2021/03/17 11:00:40;;;;;;;9.20;5.70;;;9.20;99.90;;;;;;5050832;28;20502;-65
2021/03/17 11:03:22;;;;;;;6.83;5.50;;;9.10;99.90;;;;;;5051335;28;20479;-68
2021/03/17 11:05:49;;;;;;;7.40;6.07;;;9.10;99.90;;;;;;5051088;28;20881;-67
2021/03/17 11:08:17;;;;;;;6.40;5.00;;;8.80;99.90;;;;;;5051095;28;20622;-67
2021/03/17 11:11:04;;;;;;;7.90;6.40;;;8.30;99.90;;;;;;5050721;28;20539;-67
2021/03/17 11:13:35;;;;;;;8.47;5.90;;;7.80;99.90;;;;;;5051233;28;20436;-67
2021/03/17 11:16:10;;;;;;;6.80;5.43;;;7.80;99.90;;;;;;5050810;28;20902;-67
2021/03/17 11:18:43;;;;;;;7.43;5.73;;;7.90;99.90;;;;;;5050880;28;20436;-67
2021/03/17 11:21:21;;;;;;;7.23;6.53;;;7.90;99.90;;;;;;5051023;28;20535;-67
2021/03/17 11:23:47;;;;;;;8.00;5.83;;;8.10;99.90;;;;;;5050750;28;20446;-68
2021/03/17 11:26:25;;;;;;;7.93;6.30;;;8.20;99.90;;;;;;5050263;28;20539;-67
2021/03/17 11:28:53;;;;;;;8.77;6.47;;;8.10;99.90;;;;;;5050950;28;20530;-68
2021/03/17 11:31:26;;;;;;;7.70;6.30;;;7.90;99.90;;;;;;5051511;28;20713;-68
2021/03/17 11:33:53;;;;;;;7.43;5.90;;;7.70;99.90;;;;;;5051668;28;20519;-68
2021/03/17 11:36:21;;;;;;;8.60;6.07;;;7.40;99.90;;;;;;5053288;28;20614;-67
2021/03/17 11:38:48;;;;;;;7.00;6.13;;;7.20;99.90;;;;;;5050678;28;20869;-67
2021/03/17 11:41:15;;;;;;;8.57;6.67;;;7.00;99.90;;;;;;5050668;28;20472;-67
2021/03/17 11:43:41;;;;;;;8.60;6.40;;;6.70;99.90;;;;;;5051051;28;20519;-67
2021/03/17 11:46:08;;;;;;;9.87;5.90;;;6.40;99.90;;;;;;5050343;28;20455;-68
2021/03/17 11:48:34;;;;;;;7.17;5.13;;;5.90;99.90;;;;;;5049933;28;20562;-68
2021/03/17 11:51:03;;;;;;;9.73;6.43;;;5.60;99.90;;;;;;5050799;28;20598;-68
2021/03/17 11:53:32;;;;;;;8.30;6.20;;;5.00;99.90;;;;;;5050633;28;20450;-69
2021/03/17 11:55:59;;;;;;;7.93;5.70;;;4.60;99.90;;;;;;5050498;28;20566;-68
2021/03/17 11:58:25;;;;;;;8.00;6.00;;;4.40;99.90;;;;;;5050225;28;20526;-68
2021/03/17 12:00:52;;;;;;;9.43;6.30;;;4.30;99.90;;;;;;5050563;28;20932;-68
2021/03/17 12:03:18;;;;;;;11.67;7.23;;;4.20;99.90;;;;;;5050436;28;20542;-69
2021/03/17 12:05:45;;;;;;;10.70;6.93;;;4.20;99.90;;;;;;5050538;28;20906;-69
2021/03/17 12:08:13;;;;;;;8.80;7.43;;;4.20;99.90;;;;;;5049379;28;21102;-68
2021/03/17 12:10:43;;;;;;;10.57;7.57;;;4.10;99.90;;;;;;5061773;28;20964;-69
2021/03/17 12:13:11;;;;;;;10.80;7.50;;;4.00;99.90;;;;;;5065299;28;20474;-71
2021/03/17 12:15:39;;;;;;;10.40;7.83;;;4.00;99.90;;;;;;5064829;28;20444;-67
2021/03/17 12:18:06;;;;;;;10.67;7.57;;;4.00;99.90;;;;;;5061884;28;20475;-69
2021/03/17 12:20:34;;;;;;;10.77;7.57;;;3.90;99.90;;;;;;5061467;28;20432;-70
2021/03/17 12:23:01;;;;;;;10.80;7.80;;;3.90;99.90;;;;;;5061912;28;20436;-69
2021/03/17 12:25:29;;;;;;;10.33;7.63;;;3.90;99.90;;;;;;5063619;28;20459;-67
2021/03/17 12:27:58;;;;;;;12.20;8.00;;;3.90;99.90;;;;;;5064274;28;20468;-68
2021/03/17 12:30:27;;;;;;;12.83;8.90;;;4.00;99.90;;;;;;5061817;28;21352;-69
2021/03/17 12:32:56;;;;;;;14.07;8.90;;;4.00;99.90;;;;;;5066270;28;20440;-70
2021/03/17 12:35:25;;;;;;;15.03;8.93;;;4.20;99.90;;;;;;5064722;28;20464;-68
2021/03/17 12:37:54;;;;;;;14.83;8.80;;;4.40;99.90;;;;;;5064474;28;20456;-69
2021/03/17 12:40:24;;;;;;;16.00;10.40;;;4.60;99.90;;;;;;5067387;28;20440;-69
2021/03/17 12:42:52;;;;;;;11.63;8.70;;;4.70;99.90;;;;;;5069024;28;20440;-69
2021/03/17 12:45:23;;;;;;;12.90;9.50;;;5.00;99.90;;;;;;5069912;28;20479;-67
2021/03/17 12:47:51;;;;;;;11.40;7.77;;;5.00;99.90;;;;;;5068968;28;20483;-68
2021/03/17 12:50:19;;;;;;;12.67;9.13;;;5.20;99.90;;;;;;5064252;28;20448;-68
2021/03/17 12:52:46;;;;;;;13.53;8.70;;;5.20;99.90;;;;;;5064452;28;20452;-67
2021/03/17 12:55:14;;;;;;;12.97;7.90;;;5.20;99.90;;;;;;5065126;28;20472;-69
2021/03/17 12:57:42;;;;;;;11.07;8.23;;;5.30;99.90;;;;;;5063503;28;20444;-67
2021/03/17 13:00:13;;;;;;;11.60;9.03;;;5.10;99.90;;;;;;5065057;28;20451;-68
2021/03/17 13:02:43;;;;;;;14.00;8.90;;;5.00;99.90;;;;;;5065617;28;20440;-67
2021/03/17 13:05:12;;;;;;;10.70;7.60;;;5.00;99.90;;;;;;5067326;28;20531;-69
2021/03/17 13:07:40;;;;;;;10.17;8.07;;;4.90;99.90;;;;;;5064884;28;20532;-68